Tarrant West's Hourly Summary for Friday, March 17, 2017
Hour Temp
(f)
RH
(%)
Solar Rad.
(MJ/m2)
Rainfall
(in)
Wind
(mph)
3/17/2017 12:00 AM 65 81 0 0 15.13
3/17/2017 1:00 AM 64 83 0 0 15.28
3/17/2017 2:00 AM 64 85 0 0 14.75
3/17/2017 3:00 AM 64 84 0 0 14.35
3/17/2017 4:00 AM 64 82 0 0 15.07
3/17/2017 5:00 AM 65 79 0 0 15.03
3/17/2017 6:00 AM 66 78 0 0 13.88
3/17/2017 7:00 AM 66 78 0 0 13.35
3/17/2017 8:00 AM 66 76 0.1 0 13.05
3/17/2017 9:00 AM 67 74 0.34 0 13.57
3/17/2017 10:00 AM 68 72 0.53 0 14.55
3/17/2017 11:00 AM 70 70 0.86 0 15.9
3/17/2017 12:00 PM 73 64 1.8 0 17.05
3/17/2017 1:00 PM 75 58 2.29 0 16.95
3/17/2017 2:00 PM 76 56 1.99 0 15.47
3/17/2017 3:00 PM 78 53 2.04 0 14.78
3/17/2017 4:00 PM 77 54 1.41 0 15.25
3/17/2017 5:00 PM 78 54 0.9 0 15.65
3/17/2017 6:00 PM 76 58 0.49 0 15.53
3/17/2017 7:00 PM 74 62 0.11 0 13.25
3/17/2017 8:00 PM 72 65 0 0 11
3/17/2017 9:00 PM 70 68 0 0 9.45
3/17/2017 10:00 PM 69 68 0 0 9.4
3/17/2017 11:00 PM 69 69 0 0 9.68
Data Summary 69 69 12.86 0.00 14.06